Airfield :
LOGIN :

Register | Disclaimer

   EN    FR    IT 

 










Legend :    VFR   Marginal VFR   IFR   Intensive IFR   Very Intensive IFR
Visi :
Ceiling :
>= 8 km
>= 3000ft
5 to 8 km
1000 to 3000 ft
1500m to 5 km
500 to 1000 ft
800 to 1500m
200 to 500 ft
< 800m
< 200 ft
Symbols :   Thunderstorms  Fog  Heavy snow  Heavy precipitations  Wind > 20 kt
SIGMETs :     Misc.  Thunderstorms  Icing  Turbulence  Mountain Waves  Volcanic Ashes







- Airport Elevation : 23 ft
- IATA code : XFW


EDHI - Hamburg Finkenwerder

CURRENT METAR :
  • 211820Z AUTO 21004KT 9999 // OVC035/// 13/09 Q1025

EXPIRED METARs :
  • 211750Z AUTO 21004KT 190V250 9999 // OVC034/// 13/09 Q1025
  • 211720Z AUTO 23004KT 9999 // OVC033/// 14/09 Q1025
  • 211650Z AUTO 22004KT 190V250 9999 // OVC034/// 14/09 Q1025
  • 211620Z AUTO 22004KT 180V270 9999 // OVC034/// 14/09 Q1025
  • 211550Z AUTO 21005KT 180V240 9999 4600 // OVC036/// 14/10 Q1025
  • 211520Z AUTO 23008KT 9999 // OVC035/// 15/09 Q1025

Expired Forecast.
No reported NOTAMs for that airfield.



MET'MAP, your aeronautical weather chart ! - Copyright ORBIFLY December 2007 - Disclaimer

ORBIFLY MET'MAP TEAM :

Programming & Development : Alexandra Zaïnal
Concept & Development : Baudouin d'Aumeries
Co-Development & Prog : Marc-Olivier Méhu
Technical & hardware support : Manuel Goepfert

Contact : metmap@orbifly.com




SOURCES & CREDITS :

   NOAA